Repubbli Del Brasile — IBZB — position and weather

sailwx.info

Track history (hours):
 
Tides and Currents Weather Stations Pressure Air Temp Water Temp Dewpoint Dewpoint Depression Visibility Wind Speed Wind Dir Waves Ship Positions

Repubbli Del Brasile

Last reported at 2017-Jan-16 14:33 UTC. Time now 2017-Jan-16 15:15 UTC.
Position N 44°24' E 008°53'.

Length 209 m; draft 8.4 m.

Type: Ship (hazmat cat A). MMSI: 247310000.

Date/timePositionNaut miles runAvg speedWind from/ knotsBaromVisibWave heightAir tempDewpointWater temp
2017-Jan-16 14:33N 44°24' E 008°53'0 0.0
2017-Jan-16 13:33N 44°24' E 008°53'0 0.0
2017-Jan-16 12:33N 44°24' E 008°53'0 0.0
2017-Jan-16 11:33N 44°24' E 008°53'0 0.0
2017-Jan-16 10:33N 44°24' E 008°53'0 0.0
2017-Jan-16 09:33N 44°24' E 008°53'0 0.0
2017-Jan-16 08:33N 44°24' E 008°53'0 0.1
2017-Jan-16 07:33N 44°24' E 008°53'6 5.7
2017-Jan-16 06:33N 44°20' E 008°59'9 8.8
2017-Jan-16 05:33N 44°14' E 008°50'1111.3
2017-Jan-16 04:33N 44°07' E 008°38'1111.3
2017-Jan-16 03:33N 43°60' E 008°26'2912.4
2017-Jan-16 01:12N 43°41' E 007°54'812.6
2017-Jan-16 00:33N 43°36' E 007°46'1313.4
2017-Jan-15 23:33N 43°27' E 007°32'1413.5
2017-Jan-15 22:33N 43°18' E 007°17'1313.3
2017-Jan-15 21:34N 43°10' E 007°04'7812.0
2017-Jan-15 15:04N 43°08' E 005°17'713.2
2017-Jan-15 14:33N 43°12' E 005°09'1111.2
2017-Jan-15 13:33N 43°21' E 005°19'  
2017-Jan-11 19:32N 43°21' E 005°20'9 9.1
2017-Jan-11 18:33N 43°15' E 005°11'1814.9
2017-Jan-11 17:20N 43°02' E 004°54'1916.6
2017-Jan-11 16:13N 42°51' E 004°33'14314.7
2017-Jan-11 06:28N 41°04' E 002°25'1212.9
2017-Jan-11 05:33N 40°57' E 002°12'1313.2
2017-Jan-11 04:32N 40°49' E 001°58'1414.3
2017-Jan-11 03:33N 40°41' E 001°43'1413.6
2017-Jan-11 02:33N 40°33' E 001°29'1413.7
2017-Jan-11 01:33N 40°24' E 001°14'1413.5
2017-Jan-11 00:30N 40°16' E 000°59'7313.7
2017-Jan-10 19:10N 39°29' W 000°12'5 8.3
2017-Jan-10 18:34N 39°26' W 000°18'0 0.1
2017-Jan-10 17:31N 39°27' W 000°18'0 0.0
2017-Jan-10 16:31N 39°27' W 000°18'0 0.0
2017-Jan-10 15:28N 39°27' W 000°18'0 0.0
2017-Jan-10 14:33N 39°27' W 000°18'0 0.0
2017-Jan-10 13:33N 39°27' W 000°18'0 0.0
2017-Jan-10 12:29N 39°27' W 000°18'0 0.0
2017-Jan-10 11:32N 39°27' W 000°18'0 0.0
2017-Jan-10 10:31N 39°27' W 000°18'0 0.0
2017-Jan-10 09:31N 39°27' W 000°18'0 0.0
2017-Jan-10 08:25N 39°27' W 000°18'0 0.0
2017-Jan-10 07:30N 39°27' W 000°18'0 0.0
2017-Jan-10 06:30N 39°27' W 000°18'0 0.0
2017-Jan-10 05:29N 39°27' W 000°18'0 0.3
2017-Jan-10 04:33N 39°26' W 000°18'3 0.5
2017-Jan-09 22:29N 39°23' W 000°17'0 0.0
2017-Jan-09 07:10N 39°23' W 000°17'0 0.0
2017-Jan-09 05:18N 39°23' W 000°17'0 0.0
2017-Jan-08 06:05N 39°23' W 000°17'0 0.0
2017-Jan-08 05:23N 39°23' W 000°17'0 0.0
2017-Jan-08 00:33N 39°23' W 000°17'0 0.0
2017-Jan-07 22:26N 39°23' W 000°17'0 0.0
2017-Jan-07 21:20N 39°23' W 000°17'0 0.0
2017-Jan-07 04:06N 39°23' W 000°17'0 0.0
2017-Jan-07 03:30N 39°23' W 000°17'  
Track history (hours):
 
Tides and Currents Weather Stations Pressure Air Temp Water Temp Dewpoint Dewpoint Depression Visibility Wind Speed Wind Dir Waves Ship Positions

Repubbli Del Brasile

Last reported at 2017-Jan-16 14:33 UTC. Time now 2017-Jan-16 15:15 UTC.
Position N 44°24' E 008°53'.

Length 209 m; draft 8.4 m.

Type: Ship (hazmat cat A). MMSI: 247310000.

Date/timePositionNaut miles runAvg speedWind from/ knotsBaromVisibWave heightAir tempDewpointWater temp
2017-Jan-16 14:33N 44°24' E 008°53'0 0.0
2017-Jan-16 13:33N 44°24' E 008°53'0 0.0
2017-Jan-16 12:33N 44°24' E 008°53'0 0.0
2017-Jan-16 11:33N 44°24' E 008°53'0 0.0
2017-Jan-16 10:33N 44°24' E 008°53'0 0.0
2017-Jan-16 09:33N 44°24' E 008°53'0 0.0
2017-Jan-16 08:33N 44°24' E 008°53'0 0.1
2017-Jan-16 07:33N 44°24' E 008°53'6 5.7
2017-Jan-16 06:33N 44°20' E 008°59'9 8.8
2017-Jan-16 05:33N 44°14' E 008°50'1111.3
2017-Jan-16 04:33N 44°07' E 008°38'1111.3
2017-Jan-16 03:33N 43°60' E 008°26'2912.4
2017-Jan-16 01:12N 43°41' E 007°54'812.6
2017-Jan-16 00:33N 43°36' E 007°46'1313.4
2017-Jan-15 23:33N 43°27' E 007°32'1413.5
2017-Jan-15 22:33N 43°18' E 007°17'1313.3
2017-Jan-15 21:34N 43°10' E 007°04'7812.0
2017-Jan-15 15:04N 43°08' E 005°17'713.2
2017-Jan-15 14:33N 43°12' E 005°09'1111.2
2017-Jan-15 13:33N 43°21' E 005°19'  
2017-Jan-11 19:32N 43°21' E 005°20'9 9.1
2017-Jan-11 18:33N 43°15' E 005°11'1814.9
2017-Jan-11 17:20N 43°02' E 004°54'1916.6
2017-Jan-11 16:13N 42°51' E 004°33'14314.7
2017-Jan-11 06:28N 41°04' E 002°25'1212.9
2017-Jan-11 05:33N 40°57' E 002°12'1313.2
2017-Jan-11 04:32N 40°49' E 001°58'1414.3
2017-Jan-11 03:33N 40°41' E 001°43'1413.6
2017-Jan-11 02:33N 40°33' E 001°29'1413.7
2017-Jan-11 01:33N 40°24' E 001°14'1413.5
2017-Jan-11 00:30N 40°16' E 000°59'7313.7
2017-Jan-10 19:10N 39°29' W 000°12'5 8.3
2017-Jan-10 18:34N 39°26' W 000°18'0 0.1
2017-Jan-10 17:31N 39°27' W 000°18'0 0.0
2017-Jan-10 16:31N 39°27' W 000°18'0 0.0
2017-Jan-10 15:28N 39°27' W 000°18'0 0.0
2017-Jan-10 14:33N 39°27' W 000°18'0 0.0
2017-Jan-10 13:33N 39°27' W 000°18'0 0.0
2017-Jan-10 12:29N 39°27' W 000°18'0 0.0
2017-Jan-10 11:32N 39°27' W 000°18'0 0.0
2017-Jan-10 10:31N 39°27' W 000°18'0 0.0
2017-Jan-10 09:31N 39°27' W 000°18'0 0.0
2017-Jan-10 08:25N 39°27' W 000°18'0 0.0
2017-Jan-10 07:30N 39°27' W 000°18'0 0.0
2017-Jan-10 06:30N 39°27' W 000°18'0 0.0
2017-Jan-10 05:29N 39°27' W 000°18'0 0.3
2017-Jan-10 04:33N 39°26' W 000°18'3 0.5
2017-Jan-09 22:29N 39°23' W 000°17'0 0.0
2017-Jan-09 07:10N 39°23' W 000°17'0 0.0
2017-Jan-09 05:18N 39°23' W 000°17'0 0.0
2017-Jan-08 06:05N 39°23' W 000°17'0 0.0
2017-Jan-08 05:23N 39°23' W 000°17'0 0.0
2017-Jan-08 00:33N 39°23' W 000°17'0 0.0
2017-Jan-07 22:26N 39°23' W 000°17'0 0.0
2017-Jan-07 21:20N 39°23' W 000°17'0 0.0
2017-Jan-07 04:06N 39°23' W 000°17'0 0.0
2017-Jan-07 03:30N 39°23' W 000°17'  

Dump ship's entire track history